Time;durP1;ratioP1;P1;durP2;ratioP2;P2;SDS_P1;SDS_P2;PMS_P1;PMS_P2;Temp;Humidity;BMP_temperature;BMP_pressure;BME280_temperature;BME280_humidity;BME280_pressure;Samples;Min_cycle;Max_cycle;Signal;HPM_P1;HPM_P2
2022/09/10 00:01:38;;;;;;;3.05;0.47;;;;;;;21.35;56.32;96578.94;10544063;28;20089;-26
2022/09/10 00:06:39;;;;;;;1.33;0.50;;;;;;;21.41;56.73;96583.09;10547411;28;20070;-27
2022/09/10 00:11:42;;;;;;;1.45;0.30;;;;;;;21.33;57.42;96583.22;10553439;28;20119;-26
2022/09/10 00:16:42;;;;;;;1.65;0.43;;;;;;;21.24;57.94;96573.13;10546618;28;20032;-26
2022/09/10 00:21:43;;;;;;;0.82;0.30;;;;;;;21.20;58.35;96566.41;10551400;28;20571;-27
2022/09/10 00:26:44;;;;;;;1.48;1.02;;;;;;;21.18;58.13;96572.38;10552101;28;20480;-26
2022/09/10 00:31:45;;;;;;;0.70;0.30;;;;;;;21.15;58.37;96563.06;10542688;28;20518;-26
2022/09/10 00:36:46;;;;;;;1.92;0.50;;;;;;;21.14;58.42;96551.19;10547084;28;20124;-27
2022/09/10 00:41:48;;;;;;;1.75;0.40;;;;;;;21.28;56.91;96564.59;10557993;28;20337;-26
2022/09/10 00:46:50;;;;;;;0.65;0.28;;;;;;;21.39;56.24;96557.63;10550413;28;20031;-26
2022/09/10 00:51:52;;;;;;;1.88;0.43;;;;;;;21.37;57.06;96559.38;10549686;27;20024;-26
2022/09/10 00:56:55;;;;;;;4.07;0.68;;;;;;;21.27;57.84;96542.53;10556997;28;20147;-26
2022/09/10 01:01:58;;;;;;;3.53;0.57;;;;;;;21.19;58.24;96539.25;10548559;28;20044;-26
2022/09/10 01:07:00;;;;;;;0.95;0.40;;;;;;;21.19;58.11;96546.91;10556406;28;20047;-26
2022/09/10 01:12:18;;;;;;;3.00;0.50;;;;;;;21.16;58.20;96544.41;10548833;28;20047;-27
2022/09/10 01:17:33;;;;;;;1.52;0.50;;;;;;;21.15;58.28;96544.41;10561484;28;20061;-26
2022/09/10 01:22:43;;;;;;;1.02;0.47;;;;;;;21.20;57.42;96533.31;10535636;28;20047;-26
2022/09/10 01:27:47;;;;;;;2.05;0.50;;;;;;;21.37;56.01;96549.19;10543713;28;20105;-26
2022/09/10 01:32:55;;;;;;;1.38;0.30;;;;;;;21.39;57.00;96537.25;10533499;28;20142;-27
2022/09/10 01:38:08;;;;;;;1.48;0.40;;;;;;;21.29;57.50;96538.25;10536737;28;20035;-28
2022/09/10 01:43:10;;;;;;;1.38;0.25;;;;;;;21.23;57.85;96548.53;10543212;28;20141;-26
2022/09/10 01:48:53;;;;;;;1.70;0.40;;;;;;;21.18;58.37;96555.41;10542850;28;20052;-26
2022/09/10 01:54:12;;;;;;;;;;;;;;;21.15;58.30;96552.88;10505233;28;20047;-26
2022/09/10 01:59:21;;;;;;;0.82;0.60;;;;;;;21.11;58.44;96538.50;10540988;28;20393;-26
2022/09/10 02:04:24;;;;;;;1.00;0.50;;;;;;;21.12;58.69;96550.38;10542651;28;20032;-27
2022/09/10 02:09:24;;;;;;;3.33;0.60;;;;;;;21.22;56.13;96534.13;10542987;28;20027;-26
2022/09/10 02:14:25;;;;;;;2.03;0.63;;;;;;;21.39;56.36;96537.25;10540915;28;20073;-26
2022/09/10 02:19:53;;;;;;;1.75;0.28;;;;;;;21.32;57.14;96539.94;10548481;28;20820;-27
2022/09/10 02:24:53;;;;;;;0.73;0.20;;;;;;;21.23;58.07;96540.88;10536747;28;20117;-26
2022/09/10 02:29:54;;;;;;;0.87;0.30;;;;;;;21.14;58.38;96541.00;10547183;28;20024;-26
2022/09/10 02:34:54;;;;;;;0.25;0.20;;;;;;;21.12;58.60;96555.47;10553414;28;20063;-26
2022/09/10 02:39:55;;;;;;;0.77;0.40;;;;;;;21.06;58.52;96537.72;10545064;28;20116;-27
2022/09/10 02:44:55;;;;;;;0.77;0.37;;;;;;;21.09;58.67;96558.06;10546697;28;20364;-27
2022/09/10 02:49:55;;;;;;;0.75;0.28;;;;;;;21.16;57.63;96552.03;10545056;28;20488;-27
2022/09/10 02:54:56;;;;;;;3.58;0.70;;;;;;;21.32;56.70;96550.94;10538852;28;20119;-26
2022/09/10 02:59:57;;;;;;;1.90;0.50;;;;;;;21.35;56.99;96545.81;10547327;28;20032;-27
2022/09/10 03:04:57;;;;;;;0.20;0.15;;;;;;;21.28;57.65;96538.28;10548460;28;20035;-26
2022/09/10 03:09:58;;;;;;;1.70;0.50;;;;;;;21.18;58.11;96537.56;10552711;28;20411;-26
2022/09/10 03:15:01;;;;;;;0.47;0.20;;;;;;;21.12;58.54;96550.38;10539722;28;20116;-26
2022/09/10 03:20:03;;;;;;;0.98;0.20;;;;;;;21.11;58.58;96551.25;10536099;28;20032;-26
2022/09/10 03:25:05;;;;;;;0.75;0.30;;;;;;;21.10;58.58;96549.56;10541013;28;20044;-26
2022/09/10 03:30:06;;;;;;;0.63;0.38;;;;;;;21.08;58.59;96551.28;10546954;28;20042;-26
2022/09/10 03:35:07;;;;;;;0.68;0.28;;;;;;;21.23;57.41;96560.44;10533160;28;20107;-27
2022/09/10 03:40:08;;;;;;;0.77;0.30;;;;;;;21.34;56.76;96554.34;10549929;28;20035;-27
2022/09/10 03:45:10;;;;;;;2.35;0.68;;;;;;;21.36;56.96;96564.47;10541635;28;20032;-26
2022/09/10 03:50:11;;;;;;;0.70;0.25;;;;;;;21.21;57.85;96557.91;10535513;28;20120;-27
2022/09/10 03:55:12;;;;;;;0.95;0.35;;;;;;;21.16;58.27;96569.88;10542397;28;20482;-27
2022/09/10 04:00:13;;;;;;;0.20;0.17;;;;;;;21.12;58.55;96573.28;10537343;28;20119;-27
2022/09/10 04:05:18;;;;;;;0.43;0.20;;;;;;;21.11;58.55;96591.97;10537518;28;20099;-26
2022/09/10 04:10:20;;;;;;;2.20;0.35;;;;;;;21.08;58.48;96581.84;10542932;28;20040;-27
2022/09/10 04:15:23;;;;;;;1.58;0.30;;;;;;;21.09;58.74;96591.16;10540638;28;20028;-27
2022/09/10 04:20:26;;;;;;;1.65;0.35;;;;;;;21.27;56.19;96593.47;10541583;28;20484;-26
2022/09/10 04:25:33;;;;;;;0.57;0.25;;;;;;;21.36;56.28;96588.25;10553883;28;20032;-27
2022/09/10 04:30:34;;;;;;;0.30;0.20;;;;;;;21.32;57.10;96591.69;10556160;28;20020;-26
2022/09/10 04:35:35;;;;;;;0.45;0.30;;;;;;;21.22;57.71;96591.84;10551422;28;20031;-27
2022/09/10 04:40:38;;;;;;;0.57;0.22;;;;;;;21.17;57.90;96591.91;10545777;28;20027;-26
2022/09/10 04:45:40;;;;;;;0.30;0.10;;;;;;;21.11;58.38;96597.06;10559571;28;20032;-27
2022/09/10 04:50:40;;;;;;;0.50;0.30;;;;;;;21.09;58.34;96588.63;10529864;28;20457;-26
2022/09/10 04:55:50;;;;;;;0.73;0.20;;;;;;;21.07;58.80;96580.13;10559152;28;20043;-26
2022/09/10 05:00:51;;;;;;;0.32;0.10;;;;;;;21.06;58.47;96583.53;10543486;28;20549;-26
2022/09/10 05:05:53;;;;;;;0.35;0.17;;;;;;;21.28;55.92;96573.94;10544838;28;20040;-27
2022/09/10 05:10:53;;;;;;;1.05;0.20;;;;;;;21.35;56.51;96586.56;10549554;28;20028;-26
2022/09/10 05:15:54;;;;;;;0.98;0.25;;;;;;;21.28;57.27;96584.97;10546911;28;20453;-26
2022/09/10 05:20:55;;;;;;;2.20;0.40;;;;;;;21.20;57.85;96579.13;10545861;28;20029;-27
2022/09/10 05:25:56;;;;;;;0.82;0.00;;;;;;;21.13;58.37;96585.16;10550555;28;20035;-26
2022/09/10 05:30:57;;;;;;;0.30;0.10;;;;;;;21.09;58.71;96577.56;10553967;28;20027;-26
2022/09/10 05:36:00;;;;;;;0.25;0.17;;;;;;;21.08;58.77;96578.44;10535143;28;20026;-27
2022/09/10 05:41:02;;;;;;;0.52;0.25;;;;;;;21.07;58.58;96587.78;10546269;28;20032;-26
2022/09/10 05:46:03;;;;;;;1.25;0.35;;;;;;;21.08;58.68;96584.41;10542830;28;20055;-26
2022/09/10 05:51:04;;;;;;;1.65;0.20;;;;;;;21.28;56.54;96587.50;10537902;28;20343;-26
2022/09/10 05:56:06;;;;;;;1.17;0.13;;;;;;;21.37;56.51;96584.84;10547630;28;20027;-27
2022/09/10 06:01:08;;;;;;;1.38;0.32;;;;;;;21.29;56.67;96589.19;10535454;28;20289;-27
2022/09/10 06:06:08;;;;;;;1.00;0.20;;;;;;;21.23;57.35;96596.91;10543010;28;20636;-27
2022/09/10 06:11:11;;;;;;;2.72;0.50;;;;;;;21.22;57.90;96594.41;10546226;28;20031;-26
2022/09/10 06:16:16;;;;;;;2.72;0.70;;;;;;;21.16;58.03;96600.41;10556105;28;20059;-26
2022/09/10 06:21:19;;;;;;;2.90;0.40;;;;;;;21.13;58.08;96615.72;10545453;28;20033;-26
2022/09/10 06:26:23;;;;;;;5.93;0.50;;;;;;;21.12;58.01;96620.81;10527593;28;20055;-26
2022/09/10 06:31:27;;;;;;;21.85;1.92;;;;;;;21.05;58.31;96617.50;10532483;28;20118;-27
2022/09/10 06:36:28;;;;;;;10.73;0.73;;;;;;;21.23;57.25;96627.47;10528073;28;20103;-26
2022/09/10 06:41:29;;;;;;;8.30;0.90;;;;;;;21.18;57.07;96624.16;10533343;28;20036;-26
2022/09/10 06:46:41;;;;;;;5.97;0.77;;;;;;;21.12;57.53;96624.22;10518729;28;20170;-26
2022/09/10 06:51:43;;;;;;;4.68;0.80;;;;;;;21.16;57.54;96636.06;10517520;28;20515;-26
2022/09/10 06:56:48;;;;;;;9.27;0.90;;;;;;;21.08;57.41;96637.00;10523968;28;20028;-26
2022/09/10 07:01:48;;;;;;;8.60;1.30;;;;;;;21.06;58.21;96633.63;10546131;28;20278;-27
2022/09/10 07:06:50;;;;;;;5.10;1.67;;;;;;;21.06;57.91;96643.81;10532562;28;20034;-26
2022/09/10 07:11:51;;;;;;;0.68;0.30;;;;;;;21.02;57.48;96648.09;10547990;28;20024;-26
2022/09/10 07:16:52;;;;;;;5.20;0.50;;;;;;;20.89;57.61;96654.16;10533303;28;20112;-27
2022/09/10 07:21:56;;;;;;;1.02;0.30;;;;;;;21.05;57.31;96659.94;10536340;28;20034;-27
2022/09/10 07:26:56;;;;;;;3.53;0.55;;;;;;;21.05;57.24;96658.22;10538093;28;20123;-26
2022/09/10 07:31:57;;;;;;;5.03;1.10;;;;;;;21.08;57.94;96665.00;10554693;28;20020;-26
2022/09/10 07:36:58;;;;;;;3.50;1.00;;;;;;;20.97;58.84;96670.19;10528645;28;20042;-26
2022/09/10 07:41:59;;;;;;;5.90;0.88;;;;;;;21.04;58.01;96671.81;10552220;28;20032;-27
2022/09/10 07:47:02;;;;;;;3.00;0.68;;;;;;;21.10;56.61;96671.75;10533286;28;20061;-26
2022/09/10 07:52:03;;;;;;;5.05;1.58;;;;;;;21.02;58.58;96682.88;10534142;28;20058;-26
2022/09/10 07:57:09;;;;;;;8.45;1.00;;;;;;;21.11;58.01;96683.63;10543822;28;20614;-26
2022/09/10 08:02:14;;;;;;;8.95;2.33;;;;;;;21.05;57.98;96698.13;10522840;28;20028;-26
2022/09/10 08:07:16;;;;;;;6.13;2.38;;;;;;;21.03;58.29;96699.81;10523473;28;20384;-26
2022/09/10 08:12:16;;;;;;;3.78;1.10;;;;;;;21.04;56.09;96707.47;10519629;28;20015;-26
2022/09/10 08:17:18;;;;;;;6.63;1.13;;;;;;;20.96;58.90;96716.03;10524835;28;20032;-26
2022/09/10 08:22:19;;;;;;;6.00;1.25;;;;;;;20.96;58.36;96718.59;10512636;28;20024;-28
2022/09/10 08:27:26;;;;;;;2.13;0.60;;;;;;;20.89;58.44;96722.88;10518896;28;20167;-27
2022/09/10 08:32:28;;;;;;;1.38;0.75;;;;;;;20.87;60.20;96719.50;10519093;28;20039;-27
2022/09/10 08:37:32;;;;;;;2.10;1.00;;;;;;;20.91;59.96;96731.38;10511380;28;20024;-28
2022/09/10 08:42:44;;;;;;;2.15;0.57;;;;;;;20.89;59.99;96710.16;10543078;28;20073;-28
2022/09/10 08:47:59;;;;;;;4.18;0.73;;;;;;;21.01;59.88;96738.03;10534118;28;20028;-26
2022/09/10 08:53:13;;;;;;;5.35;1.30;;;;;;;21.16;58.58;96737.91;10537096;28;20032;-26
2022/09/10 08:58:21;;;;;;;3.50;0.82;;;;;;;21.25;58.48;96748.00;10518494;28;20036;-27
2022/09/10 09:03:39;;;;;;;4.60;0.85;;;;;;;21.17;59.05;96754.88;10536624;28;20028;-26
2022/09/10 09:08:47;;;;;;;4.43;0.75;;;;;;;21.10;58.21;96763.41;10541785;28;20076;-27
2022/09/10 09:14:13;;;;;;;3.80;0.70;;;;;;;21.03;58.80;96751.59;10536482;28;20055;-26
2022/09/10 09:19:43;;;;;;;7.53;1.17;;;;;;;20.93;58.36;96747.47;10551482;28;20031;-26
2022/09/10 09:24:50;;;;;;;13.18;1.15;;;;;;;20.97;59.07;96746.56;10545796;28;20071;-26
2022/09/10 09:30:00;;;;;;;6.60;1.20;;;;;;;21.03;59.27;96763.47;10533606;28;20031;-27
2022/09/10 09:35:29;;;;;;;6.53;0.68;;;;;;;20.76;60.02;96764.53;10537875;28;20040;-27
2022/09/10 09:40:39;;;;;;;6.00;0.90;;;;;;;20.88;59.95;96769.53;10559324;28;20054;-27
2022/09/10 09:45:42;;;;;;;7.22;1.25;;;;;;;20.99;59.10;96759.28;10541598;28;20027;-26
2022/09/10 09:50:47;;;;;;;8.90;1.13;;;;;;;21.12;58.84;96766.78;10527829;28;20506;-26
2022/09/10 09:56:03;;;;;;;9.55;0.63;;;;;;;20.98;59.60;96762.69;10551424;27;20039;-26
2022/09/10 10:01:03;;;;;;;9.57;1.23;;;;;;;21.04;59.51;96763.47;10558780;28;20039;-26
2022/09/10 10:06:07;;;;;;;6.78;0.90;;;;;;;21.13;59.21;96770.19;10548626;28;20055;-26
2022/09/10 10:11:09;;;;;;;4.35;0.85;;;;;;;21.12;58.92;96771.88;10555950;27;20621;-27
2022/09/10 10:16:25;;;;;;;6.63;1.27;;;;;;;21.24;58.51;96768.38;10554198;28;20032;-29
2022/09/10 10:21:30;;;;;;;7.27;1.00;;;;;;;21.29;57.98;96766.63;10548094;28;20035;-26
2022/09/10 10:26:33;;;;;;;3.03;0.77;;;;;;;21.24;58.03;96766.66;10557710;28;20036;-26
2022/09/10 10:31:38;;;;;;;1.75;0.50;;;;;;;21.22;58.22;96765.81;10554975;28;20036;-27
2022/09/10 10:37:08;;;;;;;13.65;1.52;;;;;;;21.13;58.08;96767.63;10532649;28;20142;-25
2022/09/10 10:42:12;;;;;;;5.25;0.63;;;;;;;20.90;58.45;96760.19;10556847;28;20491;-28
2022/09/10 10:47:26;;;;;;;7.80;1.23;;;;;;;21.00;58.70;96766.06;10551058;28;20631;-28
2022/09/10 10:53:02;;;;;;;0.65;0.50;;;;;;;21.08;57.64;96762.59;10540133;28;20058;-28
2022/09/10 10:58:50;;;;;;;27.23;1.33;;;;;;;21.20;57.68;96752.28;10515431;28;20480;-27
2022/09/10 11:04:15;;;;;;;6.28;0.82;;;;;;;21.16;58.14;96753.19;10453834;28;20051;-28
2022/09/10 11:09:24;;;;;;;4.68;0.90;;;;;;;21.10;58.16;96745.59;10544376;28;20032;-28
2022/09/10 11:14:27;;;;;;;4.78;0.70;;;;;;;21.13;58.27;96730.28;10527135;28;20399;-27
2022/09/10 11:19:52;;;;;;;6.22;0.90;;;;;;;21.10;58.50;96730.31;10540544;28;20035;-28
2022/09/10 11:25:02;;;;;;;7.88;1.08;;;;;;;21.26;57.19;96729.31;10546464;28;20055;-28
2022/09/10 11:30:15;;;;;;;7.25;1.38;;;;;;;21.26;57.80;96720.81;10553758;28;20399;-28
2022/09/10 11:35:39;;;;;;;8.13;0.85;;;;;;;21.26;58.08;96731.84;10530054;28;20028;-28
2022/09/10 11:41:03;;;;;;;9.10;0.95;;;;;;;21.17;58.25;96724.31;10554460;28;20067;-27
2022/09/10 11:46:11;;;;;;;4.25;0.75;;;;;;;21.21;57.33;96713.22;10544347;28;20392;-29
2022/09/10 11:51:21;;;;;;;5.78;0.80;;;;;;;21.36;57.11;96727.47;10541663;28;20089;-28
2022/09/10 11:56:34;;;;;;;2.38;0.60;;;;;;;21.31;57.44;96722.44;10553448;28;20092;-27
2022/09/10 12:02:12;;;;;;;5.57;0.70;;;;;;;21.24;57.51;96720.81;10550501;28;20032;-28
2022/09/10 12:07:34;;;;;;;5.88;0.70;;;;;;;21.19;57.65;96730.22;10549114;28;20411;-27
2022/09/10 12:12:42;;;;;;;25.13;2.30;;;;;;;21.48;55.22;96719.72;10553840;28;20028;-27
2022/09/10 12:17:48;;;;;;;48.53;3.95;;;;;;;21.41;52.66;96718.91;10549834;28;20028;-28
2022/09/10 12:22:53;;;;;;;25.43;2.33;;;;;;;21.35;51.54;96713.91;10533869;28;20489;-28
2022/09/10 12:27:57;;;;;;;5.83;1.03;;;;;;;21.31;52.76;96717.34;10538877;28;20092;-28
2022/09/10 12:33:15;;;;;;;12.88;1.45;;;;;;;21.26;51.69;96719.13;10547222;28;20032;-28
2022/09/10 12:38:46;;;;;;;8.48;1.33;;;;;;;21.30;51.36;96710.56;10552450;28;20027;-28
2022/09/10 12:43:47;;;;;;;8.57;1.35;;;;;;;21.21;53.27;96703.03;10556344;28;20037;-28
2022/09/10 12:48:50;;;;;;;5.33;0.80;;;;;;;21.29;51.58;96697.88;10558795;28;20036;-27
2022/09/10 12:53:59;;;;;;;8.45;0.77;;;;;;;21.23;52.90;96688.56;10543534;28;20031;-27
2022/09/10 12:59:29;;;;;;;9.20;0.95;;;;;;;21.33;51.79;96694.41;10557571;28;20040;-28
2022/09/10 13:04:36;;;;;;;2.80;0.65;;;;;;;21.14;55.05;96693.78;10545579;28;20046;-28
2022/09/10 13:09:37;;;;;;;;;;;;;;;21.19;55.11;96684.38;10558899;27;20486;-28
2022/09/10 13:14:44;;;;;;;2.88;0.50;;;;;;;21.23;53.17;96678.38;10529577;28;19912;-26
2022/09/10 13:19:44;;;;;;;2.70;0.77;;;;;;;21.15;54.62;96680.19;10543149;28;20039;-28
2022/09/10 13:25:06;;;;;;;2.50;0.50;;;;;;;21.15;55.82;96672.53;10546323;28;20254;-28
2022/09/10 13:30:18;;;;;;;3.83;0.65;;;;;;;21.19;51.74;96676.75;10556168;28;20035;-28
2022/09/10 13:35:44;;;;;;;2.75;0.52;;;;;;;21.22;55.81;96676.69;10547454;28;20047;-27
2022/09/10 13:41:02;;;;;;;2.07;0.60;;;;;;;21.16;56.59;96679.34;10539776;28;20036;-28
2022/09/10 13:46:11;;;;;;;2.63;0.65;;;;;;;21.16;56.91;96675.94;10539612;28;20120;-28
2022/09/10 13:51:29;;;;;;;1.25;0.52;;;;;;;21.15;57.24;96679.34;10540339;28;20024;-28
2022/09/10 13:56:31;;;;;;;1.98;0.50;;;;;;;21.28;54.08;96678.34;10554895;28;20039;-27
2022/09/10 14:01:51;;;;;;;2.45;0.60;;;;;;;21.26;55.61;96670.72;10549689;28;20503;-27
2022/09/10 14:07:11;;;;;;;4.53;0.68;;;;;;;21.22;57.15;96676.69;10546618;28;20513;-27
2022/09/10 14:12:13;;;;;;;10.68;0.60;;;;;;;21.17;57.51;96673.38;10561092;28;20024;-28
2022/09/10 14:17:36;;;;;;;9.60;0.85;;;;;;;21.18;57.67;96674.22;10558864;28;20223;-27
2022/09/10 14:22:37;;;;;;;12.18;1.55;;;;;;;21.23;56.10;96683.47;10536819;28;20586;-28
2022/09/10 14:27:38;;;;;;;9.32;1.10;;;;;;;21.26;54.83;96685.16;10548017;28;20024;-28
2022/09/10 14:32:39;;;;;;;12.80;1.75;;;;;;;21.11;54.83;96683.63;10523962;28;20578;-28
2022/09/10 14:37:40;;;;;;;2.35;0.88;;;;;;;21.00;56.20;96689.69;10531035;28;20036;-28
2022/09/10 14:42:41;;;;;;;2.97;1.15;;;;;;;21.09;57.66;96684.50;10541841;28;20088;-27
2022/09/10 14:47:51;;;;;;;5.37;1.37;;;;;;;21.10;57.99;96687.03;10549373;28;20563;-28
2022/09/10 14:52:51;;;;;;;4.97;0.80;;;;;;;21.21;56.03;96695.41;10535251;28;20293;-28
2022/09/10 14:57:54;;;;;;;3.28;0.63;;;;;;;21.28;55.41;96701.25;10528071;28;20036;-28
2022/09/10 15:02:56;;;;;;;8.57;1.45;;;;;;;21.23;57.15;96698.75;10547524;28;20035;-27
2022/09/10 15:07:56;;;;;;;2.15;0.52;;;;;;;21.12;57.67;96684.47;10543155;28;20031;-28
2022/09/10 15:12:57;;;;;;;1.25;0.57;;;;;;;21.09;57.92;96687.03;10549871;28;20432;-29
2022/09/10 15:17:58;;;;;;;4.47;0.65;;;;;;;21.13;57.78;96697.19;10545032;28;20040;-29
2022/09/10 15:22:58;;;;;;;5.23;0.80;;;;;;;21.24;55.98;96710.63;10540850;28;20040;-29
2022/09/10 15:27:59;;;;;;;3.13;1.07;;;;;;;21.30;55.46;96713.13;10550969;28;20063;-28
2022/09/10 15:33:02;;;;;;;2.67;0.73;;;;;;;21.19;56.58;96722.59;10544561;28;20500;-27
2022/09/10 15:38:03;;;;;;;2.13;0.50;;;;;;;21.20;57.76;96739.53;10538118;28;20099;-28
2022/09/10 15:43:05;;;;;;;1.58;0.50;;;;;;;21.16;57.87;96743.00;10549319;28;20111;-28
2022/09/10 15:48:06;;;;;;;2.10;0.57;;;;;;;21.15;57.75;96738.72;10544055;28;20502;-28
2022/09/10 15:53:06;;;;;;;7.10;0.75;;;;;;;21.22;56.67;96750.56;10531476;28;20114;-28
2022/09/10 15:58:07;;;;;;;3.65;0.70;;;;;;;21.30;56.08;96736.03;10537681;28;20035;-29
2022/09/10 16:03:07;;;;;;;4.35;0.50;;;;;;;21.26;57.05;96734.41;10538995;28;20047;-27
2022/09/10 16:08:07;;;;;;;2.30;1.20;;;;;;;21.20;57.80;96743.78;10548261;28;20035;-28
2022/09/10 16:13:08;;;;;;;3.17;0.83;;;;;;;21.16;57.97;96731.97;10560967;28;20032;-28
2022/09/10 16:18:08;;;;;;;1.33;0.40;;;;;;;21.13;58.08;96737.91;10543297;28;20121;-28
2022/09/10 16:23:09;;;;;;;9.50;1.03;;;;;;;21.18;57.59;96737.88;10548345;28;20032;-30
2022/09/10 16:28:09;;;;;;;1.52;0.60;;;;;;;21.22;55.90;96731.91;10539843;28;20665;-28
2022/09/10 16:33:10;;;;;;;1.67;0.60;;;;;;;21.29;56.19;96734.34;10556397;28;20688;-28
2022/09/10 16:38:10;;;;;;;1.23;0.30;;;;;;;21.21;57.69;96736.13;10546053;28;20054;-28
2022/09/10 16:43:11;;;;;;;0.80;0.37;;;;;;;21.16;58.14;96735.34;10548078;28;20285;-29
2022/09/10 16:48:12;;;;;;;1.48;0.57;;;;;;;21.10;58.06;96727.78;10552392;28;20334;-28
2022/09/10 16:53:13;;;;;;;2.53;0.40;;;;;;;21.11;58.28;96728.59;10544848;28;20122;-28
2022/09/10 16:58:13;;;;;;;1.27;0.60;;;;;;;21.21;55.83;96725.13;10548845;28;20054;-28
2022/09/10 17:03:14;;;;;;;0.90;0.40;;;;;;;21.28;55.94;96727.56;10544053;28;20031;-28
2022/09/10 17:08:14;;;;;;;2.88;0.57;;;;;;;21.25;56.39;96734.41;10529412;28;20294;-28
2022/09/10 17:13:15;;;;;;;0.60;0.30;;;;;;;21.17;57.73;96734.50;10549083;28;20110;-28
2022/09/10 17:18:15;;;;;;;2.75;0.60;;;;;;;21.17;57.96;96728.53;10533743;28;20748;-28
2022/09/10 17:23:17;;;;;;;1.00;0.30;;;;;;;21.12;58.04;96746.41;10511613;28;20044;-28
2022/09/10 17:28:18;;;;;;;2.25;0.40;;;;;;;21.15;57.28;96746.38;10548892;28;20371;-29
2022/09/10 17:33:18;;;;;;;3.70;0.40;;;;;;;21.22;56.27;96750.56;10549741;28;20048;-29
2022/09/10 17:38:18;;;;;;;1.13;0.40;;;;;;;21.28;56.57;96752.19;10537117;28;20092;-28
2022/09/10 17:43:19;;;;;;;0.85;0.40;;;;;;;21.19;57.75;96748.03;10539656;28;20123;-30
2022/09/10 17:48:20;;;;;;;0.43;0.30;;;;;;;21.12;58.35;96736.22;10528818;28;20055;-29
2022/09/10 17:53:22;;;;;;;0.65;0.20;;;;;;;21.13;58.29;96742.19;10545666;28;20596;-29
2022/09/10 17:58:22;;;;;;;0.77;0.35;;;;;;;21.10;58.58;96743.03;10536355;28;20073;-27
2022/09/10 18:03:23;;;;;;;3.90;0.70;;;;;;;21.21;55.93;96755.69;10540900;28;20064;-27
2022/09/10 18:08:23;;;;;;;2.67;0.47;;;;;;;21.26;56.02;96759.00;10522132;28;20096;-28
2022/09/10 18:13:23;;;;;;;1.43;0.30;;;;;;;21.22;57.74;96767.56;10525944;28;20039;-27
2022/09/10 18:18:24;;;;;;;0.50;0.40;;;;;;;21.17;58.17;96775.22;10517559;28;20431;-26
2022/09/10 18:23:24;;;;;;;0.90;0.37;;;;;;;21.14;58.30;96772.69;10519204;28;20298;-27
2022/09/10 18:28:24;;;;;;;0.67;0.17;;;;;;;21.11;58.50;96785.47;10519585;28;20032;-27
2022/09/10 18:33:25;;;;;;;1.87;0.70;;;;;;;21.10;58.63;96788.00;10538318;28;20024;-27
2022/09/10 18:38:26;;;;;;;6.87;1.13;;;;;;;21.21;57.18;96788.78;10551871;28;20057;-27
2022/09/10 18:43:29;;;;;;;2.45;0.80;;;;;;;21.26;57.20;96795.50;10538276;28;20126;-27
2022/09/10 18:48:35;;;;;;;9.13;1.38;;;;;;;21.13;57.55;96786.28;10537330;28;20035;-27
2022/09/10 18:53:37;;;;;;;2.08;0.70;;;;;;;21.14;57.83;96804.97;10536603;28;20039;-27
2022/09/10 18:58:38;;;;;;;6.38;1.10;;;;;;;21.12;58.24;96810.06;10523871;28;20463;-27
2022/09/10 19:03:41;;;;;;;4.10;1.00;;;;;;;21.13;58.13;96818.56;10530853;28;20037;-28
2022/09/10 19:08:47;;;;;;;5.00;1.58;;;;;;;21.19;56.61;96829.53;10528390;28;20119;-27
2022/09/10 19:13:50;;;;;;;3.80;0.80;;;;;;;21.25;56.10;96826.06;10528160;28;20471;-27
2022/09/10 19:18:55;;;;;;;5.47;0.68;;;;;;;21.24;56.63;96830.31;10525249;28;20036;-28
2022/09/10 19:23:56;;;;;;;5.07;0.50;;;;;;;21.20;57.35;96826.13;10537654;28;20070;-27
2022/09/10 19:28:57;;;;;;;1.00;0.50;;;;;;;21.15;58.00;96824.47;10539869;28;20030;-27
2022/09/10 19:34:01;;;;;;;2.97;0.60;;;;;;;21.13;58.09;96834.66;10543500;28;20045;-28
2022/09/10 19:39:07;;;;;;;1.75;0.50;;;;;;;21.10;58.24;96839.78;10526127;28;20139;-27
2022/09/10 19:44:08;;;;;;;1.67;0.47;;;;;;;21.16;56.12;96837.19;10533422;28;20122;-28
2022/09/10 19:49:09;;;;;;;1.08;0.40;;;;;;;21.24;55.63;96837.13;10540393;28;20039;-29
2022/09/10 19:54:10;;;;;;;3.15;0.50;;;;;;;21.24;56.55;96847.31;10524427;28;20054;-26
2022/09/10 19:59:11;;;;;;;0.98;0.35;;;;;;;21.17;57.55;96841.44;10526987;28;20028;-27
2022/09/10 20:04:12;;;;;;;0.43;0.30;;;;;;;21.13;58.09;96839.75;10547122;28;20036;-28
2022/09/10 20:09:13;;;;;;;1.98;0.45;;;;;;;21.09;58.12;96838.09;10541494;28;20028;-28
2022/09/10 20:14:13;;;;;;;0.50;0.30;;;;;;;21.07;58.43;96839.78;10541529;28;20036;-28
2022/09/10 20:19:20;;;;;;;1.87;0.50;;;;;;;21.16;56.39;96843.97;10542233;28;20111;-27
2022/09/10 20:24:22;;;;;;;2.28;0.70;;;;;;;21.17;56.02;96835.50;10546162;28;20035;-27
2022/09/10 20:29:24;;;;;;;0.65;0.30;;;;;;;21.23;56.47;96832.91;10541449;28;20028;-27
2022/09/10 20:34:25;;;;;;;1.95;0.55;;;;;;;21.17;57.48;96833.78;10539822;28;20423;-27
2022/09/10 20:39:25;;;;;;;0.90;0.40;;;;;;;21.10;58.37;96818.56;10533261;28;20435;-27
2022/09/10 20:44:26;;;;;;;1.17;0.38;;;;;;;21.08;58.32;96826.25;10546025;28;20040;-26
2022/09/10 20:49:28;;;;;;;0.90;0.40;;;;;;;21.01;58.48;96828.84;10545998;28;20082;-27
2022/09/10 20:54:29;;;;;;;1.60;0.50;;;;;;;21.10;56.89;96832.16;10529727;28;20044;-27
2022/09/10 20:59:29;;;;;;;1.20;0.50;;;;;;;21.19;56.68;96831.22;10545772;28;20041;-27
2022/09/10 21:04:31;;;;;;;1.60;0.40;;;;;;;21.19;57.25;96833.75;10541697;28;20032;-27
2022/09/10 21:09:31;;;;;;;0.98;0.32;;;;;;;21.15;57.83;96832.94;10539215;28;20028;-26
2022/09/10 21:14:32;;;;;;;2.87;0.60;;;;;;;21.10;57.80;96834.69;10544954;28;20089;-27
2022/09/10 21:19:32;;;;;;;0.90;0.40;;;;;;;21.07;58.14;96832.16;10535115;28;20032;-26
2022/09/10 21:24:33;;;;;;;2.10;0.77;;;;;;;21.05;58.38;96836.44;10538492;28;20665;-27
2022/09/10 21:29:33;;;;;;;1.90;0.63;;;;;;;21.12;56.97;96839.75;10551540;28;20533;-27
2022/09/10 21:34:34;;;;;;;0.97;0.50;;;;;;;21.20;56.76;96845.63;10530735;28;20501;-27
2022/09/10 21:39:34;;;;;;;0.75;0.47;;;;;;;21.20;56.88;96841.41;10529545;28;20040;-27
2022/09/10 21:44:34;;;;;;;5.57;0.80;;;;;;;21.16;57.64;96839.75;10546936;28;20032;-27
2022/09/10 21:49:35;;;;;;;1.07;0.50;;;;;;;21.11;57.96;96833.84;10557387;27;20038;-27
2022/09/10 21:54:35;;;;;;;0.90;0.30;;;;;;;21.09;58.27;96832.16;10542845;28;20389;-27
2022/09/10 21:59:36;;;;;;;2.73;0.63;;;;;;;21.05;58.43;96838.97;10542820;28;20543;-27
2022/09/10 22:04:36;;;;;;;2.03;0.52;;;;;;;21.05;58.31;96841.53;10550258;28;20643;-27
2022/09/10 22:09:36;;;;;;;4.00;0.63;;;;;;;21.16;57.29;96833.81;10552161;28;20072;-27
2022/09/10 22:14:37;;;;;;;3.43;0.60;;;;;;;21.20;57.15;96846.50;10551646;28;20036;-27
2022/09/10 22:19:37;;;;;;;2.50;0.70;;;;;;;21.18;57.34;96847.34;10551641;28;20036;-26
2022/09/10 22:24:38;;;;;;;1.48;0.60;;;;;;;21.09;58.24;96843.19;10552752;28;20035;-28
2022/09/10 22:29:38;;;;;;;1.63;0.50;;;;;;;21.08;58.38;96849.16;10543362;28;20495;-27
2022/09/10 22:34:38;;;;;;;1.30;0.40;;;;;;;20.96;58.49;96846.69;10555360;28;20034;-27
2022/09/10 22:39:39;;;;;;;1.27;0.50;;;;;;;21.03;58.52;96855.97;10541000;28;20571;-27
2022/09/10 22:44:40;;;;;;;2.15;0.47;;;;;;;21.14;57.04;96861.81;10552837;28;20128;-26
2022/09/10 22:49:40;;;;;;;1.52;0.52;;;;;;;21.16;57.28;96857.56;10554008;28;20395;-27
2022/09/10 22:54:40;;;;;;;0.70;0.30;;;;;;;21.20;57.38;96861.78;10536637;28;20043;-27
2022/09/10 22:59:41;;;;;;;1.60;0.47;;;;;;;21.17;57.86;96871.13;10549437;28;20032;-27
2022/09/10 23:04:41;;;;;;;2.20;0.50;;;;;;;21.12;58.10;96870.31;10552376;28;20506;-27
2022/09/10 23:09:42;;;;;;;1.75;0.50;;;;;;;21.07;58.32;96862.72;10551083;28;20039;-27
2022/09/10 23:14:42;;;;;;;1.93;0.77;;;;;;;21.06;58.47;96863.56;10552162;28;20456;-28
2022/09/10 23:19:43;;;;;;;3.10;0.50;;;;;;;21.04;58.31;96862.75;10540093;28;20035;-27
2022/09/10 23:24:43;;;;;;;2.90;0.82;;;;;;;21.14;56.94;96861.81;10553298;28;20095;-27
2022/09/10 23:29:44;;;;;;;2.40;0.87;;;;;;;21.18;56.98;96867.72;10546685;28;20135;-26
2022/09/10 23:34:44;;;;;;;1.20;0.28;;;;;;;21.17;57.61;96871.13;10552527;28;20043;-29